createdAt,value
2017-11-13T00:01:54.272Z,7.80
2017-11-13T00:04:21.252Z,7.57
2017-11-13T00:06:48.543Z,8.30
2017-11-13T00:09:16.199Z,8.90
2017-11-13T00:11:43.108Z,8.67
2017-11-13T00:14:10.428Z,8.43
2017-11-13T00:16:38.231Z,8.00
2017-11-13T00:19:05.629Z,8.20
2017-11-13T00:21:32.627Z,9.13
2017-11-13T00:23:59.559Z,9.03
2017-11-13T00:26:26.544Z,9.27
2017-11-13T00:28:53.834Z,8.37
2017-11-13T00:31:20.771Z,9.17
2017-11-13T00:33:47.655Z,9.20
2017-11-13T00:36:14.629Z,9.33
2017-11-13T00:38:42.017Z,9.70
2017-11-13T00:41:09.019Z,9.00
2017-11-13T00:43:35.908Z,8.73
2017-11-13T00:46:02.792Z,8.73
2017-11-13T00:48:29.764Z,8.83
2017-11-13T00:50:57.119Z,9.50
2017-11-13T00:53:24.407Z,9.10
2017-11-13T00:55:51.329Z,9.60
2017-11-13T00:58:18.622Z,9.60
2017-11-13T01:00:45.620Z,9.67
2017-11-13T01:03:12.974Z,8.40
2017-11-13T01:05:40.330Z,8.43
2017-11-13T01:08:07.219Z,8.70
2017-11-13T01:10:34.130Z,7.80
2017-11-13T01:13:01.472Z,7.83
2017-11-13T01:15:28.934Z,8.10
2017-11-13T01:17:55.829Z,8.00
2017-11-13T01:20:22.784Z,7.77
2017-11-13T01:22:49.771Z,7.77
2017-11-13T01:25:16.660Z,8.10
2017-11-13T01:27:43.564Z,7.50
2017-11-13T01:30:10.519Z,7.40
2017-11-13T01:32:37.806Z,7.43
2017-11-13T01:35:04.691Z,9.57
2017-11-13T01:37:31.654Z,8.47
2017-11-13T01:39:58.539Z,8.17
2017-11-13T01:42:25.427Z,7.87
2017-11-13T01:44:52.358Z,7.00
2017-11-13T01:47:19.238Z,7.17
2017-11-13T01:49:46.189Z,7.53
2017-11-13T01:52:13.506Z,7.57
2017-11-13T01:54:40.480Z,6.53
2017-11-13T01:57:07.372Z,7.37
2017-11-13T01:59:34.276Z,7.00
2017-11-13T02:02:01.638Z,7.13
2017-11-13T02:04:28.605Z,7.23
2017-11-13T02:06:55.488Z,6.90
2017-11-13T02:09:22.390Z,7.93
2017-11-13T02:11:49.719Z,8.30
2017-11-13T02:14:16.602Z,7.97
2017-11-13T02:16:43.487Z,8.30
2017-11-13T02:19:10.407Z,8.17
2017-11-13T02:21:37.302Z,8.20
2017-11-13T02:24:04.192Z,8.50
2017-11-13T02:26:31.106Z,9.03
2017-11-13T02:28:58.393Z,8.27
2017-11-13T02:31:25.281Z,8.30
2017-11-13T02:33:52.206Z,8.80
2017-11-13T02:36:19.095Z,8.27
2017-11-13T02:38:46.374Z,8.70
2017-11-13T02:41:13.291Z,7.50
2017-11-13T02:43:40.590Z,8.17
2017-11-13T02:46:07.486Z,8.53
2017-11-13T02:48:34.807Z,9.20
2017-11-13T02:51:01.692Z,8.83
2017-11-13T02:53:28.981Z,9.37
2017-11-13T02:55:55.899Z,8.03
2017-11-13T02:58:23.179Z,9.73
2017-11-13T03:00:50.080Z,9.23
2017-11-13T03:03:17.040Z,9.33
2017-11-13T03:05:44.387Z,8.57
2017-11-13T03:08:11.280Z,7.23
2017-11-13T03:10:38.267Z,8.30
2017-11-13T03:13:05.161Z,8.90
2017-11-13T03:15:32.056Z,6.83
2017-11-13T03:17:58.983Z,8.10
2017-11-13T03:20:25.875Z,8.17
2017-11-13T03:22:53.159Z,8.17
2017-11-13T03:25:20.075Z,7.80
2017-11-13T03:27:47.350Z,8.80
2017-11-13T03:30:14.289Z,8.40
2017-11-13T03:32:41.212Z,7.97
2017-11-13T03:35:08.155Z,8.20
2017-11-13T03:37:35.080Z,8.00
2017-11-13T03:40:01.977Z,10.03
2017-11-13T03:42:28.891Z,7.83
2017-11-13T03:44:55.838Z,9.07
2017-11-13T03:47:22.783Z,8.90
2017-11-13T03:49:49.680Z,9.43
2017-11-13T03:52:16.675Z,9.10
2017-11-13T03:54:43.631Z,9.47
2017-11-13T03:57:10.519Z,9.07
2017-11-13T03:59:37.707Z,9.00
2017-11-13T04:02:04.675Z,10.10
2017-11-13T04:04:31.959Z,9.30
2017-11-13T04:06:58.966Z,9.13
2017-11-13T04:09:25.865Z,9.63
2017-11-13T04:11:52.755Z,7.70
2017-11-13T04:14:19.714Z,8.70
2017-11-13T04:16:46.994Z,8.87
2017-11-13T04:19:13.911Z,8.93
2017-11-13T04:21:41.275Z,8.37
2017-11-13T04:24:08.567Z,9.27
2017-11-13T04:26:35.567Z,8.97
2017-11-13T04:29:02.475Z,9.03
2017-11-13T04:31:29.457Z,8.00
2017-11-13T04:33:56.403Z,9.10
2017-11-13T04:36:23.355Z,8.90
2017-11-13T04:38:50.300Z,8.80
2017-11-13T04:41:17.224Z,9.90
2017-11-13T04:43:44.196Z,9.80
2017-11-13T04:46:11.481Z,9.10
2017-11-13T04:48:38.512Z,8.67
2017-11-13T04:51:05.808Z,9.90
2017-11-13T04:53:32.795Z,9.53
2017-11-13T04:55:59.751Z,9.23
2017-11-13T04:58:26.667Z,8.67
2017-11-13T05:00:53.558Z,9.40
2017-11-13T05:03:20.840Z,10.50
2017-11-13T05:05:47.763Z,10.10
2017-11-13T05:08:14.702Z,10.10
2017-11-13T05:10:41.994Z,10.07
2017-11-13T05:13:08.893Z,10.13
2017-11-13T05:15:36.294Z,9.80
2017-11-13T05:18:03.186Z,10.10
2017-11-13T05:20:30.066Z,9.97
2017-11-13T05:22:56.987Z,10.10
2017-11-13T05:25:24.303Z,9.70
2017-11-13T05:27:51.198Z,8.97
2017-11-13T05:30:18.091Z,8.30
2017-11-13T05:32:45.025Z,10.40
2017-11-13T05:35:11.930Z,10.17
2017-11-13T05:40:35.463Z,9.80
2017-11-13T05:43:02.386Z,11.13
2017-11-13T05:45:29.283Z,10.33
2017-11-13T05:47:56.185Z,10.13
2017-11-13T05:52:55.559Z,11.47
2017-11-13T05:55:22.486Z,10.60
2017-11-13T05:57:52.026Z,9.83
2017-11-13T06:00:20.210Z,10.93
2017-11-13T06:02:48.904Z,10.60
2017-11-13T06:05:15.815Z,11.63
2017-11-13T06:07:47.791Z,11.77
2017-11-13T06:10:15.075Z,11.07
2017-11-13T06:12:42.763Z,11.03
2017-11-13T06:15:09.683Z,11.67
2017-11-13T06:17:52.550Z,11.20
2017-11-13T06:20:19.479Z,12.30
2017-11-13T06:22:46.366Z,12.57
2017-11-13T06:25:14.539Z,12.27
2017-11-13T06:27:41.903Z,13.37
2017-11-13T06:30:12.278Z,14.30
2017-11-13T06:32:39.175Z,11.70
2017-11-13T06:35:10.459Z,12.73
2017-11-13T06:37:37.354Z,14.03
2017-11-13T06:42:48.787Z,13.87
2017-11-13T06:45:17.696Z,15.00
2017-11-13T06:50:29.101Z,11.40
2017-11-13T06:52:56.018Z,12.77
2017-11-13T06:55:23.368Z,13.70
2017-11-13T06:57:51.604Z,13.00
2017-11-13T07:00:19.504Z,13.00
2017-11-13T07:02:52.703Z,12.17
2017-11-13T07:05:20.055Z,13.03
2017-11-13T07:07:50.899Z,11.30
2017-11-13T07:10:21.236Z,13.67
2017-11-13T07:12:50.823Z,12.80
2017-11-13T07:15:19.761Z,13.07
2017-11-13T07:17:46.664Z,12.20
2017-11-13T07:20:14.461Z,11.70
2017-11-13T07:22:43.335Z,11.63
2017-11-13T07:25:10.659Z,12.83
2017-11-13T07:27:37.670Z,11.53
2017-11-13T07:30:16.552Z,11.20
2017-11-13T07:32:44.939Z,11.17
2017-11-13T07:35:12.231Z,11.60
2017-11-13T07:37:48.687Z,13.20
2017-11-13T07:40:17.553Z,11.37
2017-11-13T07:42:44.947Z,11.60
2017-11-13T07:45:22.952Z,10.73
2017-11-13T07:47:49.856Z,11.80
2017-11-13T07:50:17.655Z,12.30
2017-11-13T07:52:47.434Z,11.03
2017-11-13T07:57:58.626Z,10.83
2017-11-13T08:00:25.579Z,10.20
2017-11-13T08:02:56.523Z,9.53
2017-11-13T08:05:24.642Z,9.83
2017-11-13T08:07:51.540Z,9.83
2017-11-13T08:10:26.723Z,8.40
2017-11-13T08:12:53.642Z,9.80
2017-11-13T08:15:21.899Z,8.50
2017-11-13T08:20:35.171Z,8.40
2017-11-13T08:23:04.142Z,9.30
2017-11-13T08:28:15.726Z,9.40
2017-11-13T08:30:46.299Z,7.90
2017-11-13T08:33:13.582Z,10.13
2017-11-13T08:35:41.295Z,9.80
2017-11-13T08:38:26.159Z,8.90
2017-11-13T08:40:53.094Z,9.00
2017-11-13T08:48:48.663Z,8.53
2017-11-13T08:51:19.604Z,8.40
2017-11-13T08:53:51.461Z,7.93
2017-11-13T08:56:20.354Z,8.43
2017-11-13T08:58:47.307Z,7.90
2017-11-13T09:01:18.010Z,8.10
2017-11-13T09:03:45.868Z,7.37
2017-11-13T09:06:15.167Z,8.67
2017-11-13T09:08:42.082Z,7.93
2017-11-13T09:11:10.574Z,8.07
2017-11-13T09:13:37.480Z,6.43
2017-11-13T09:16:04.395Z,7.83
2017-11-13T09:18:31.303Z,6.80
2017-11-13T09:20:58.266Z,7.20
2017-11-13T09:23:25.315Z,8.33
2017-11-13T09:28:41.668Z,6.60
2017-11-13T09:31:08.636Z,6.90
2017-11-13T09:33:36.016Z,8.10
2017-11-13T09:36:08.787Z,7.60
2017-11-13T09:38:36.073Z,6.60
2017-11-13T09:41:02.961Z,6.63
2017-11-13T09:43:30.631Z,5.80
2017-11-13T09:45:59.319Z,6.00
2017-11-13T09:48:40.251Z,5.57
2017-11-13T09:53:51.399Z,5.30
2017-11-13T09:56:20.683Z,5.90
2017-11-13T09:58:49.537Z,6.00
2017-11-13T10:01:16.419Z,5.97
2017-11-13T10:03:43.313Z,5.77
2017-11-13T10:08:42.490Z,5.30
2017-11-13T10:11:09.415Z,6.50
2017-11-13T10:13:37.792Z,6.80
2017-11-13T10:16:06.415Z,5.70
2017-11-13T10:18:34.279Z,5.80
2017-11-13T10:21:07.451Z,5.90
2017-11-13T10:23:34.384Z,5.03
2017-11-13T10:26:01.998Z,4.57
2017-11-13T10:28:29.331Z,4.67
2017-11-13T10:30:57.166Z,4.43
2017-11-13T10:33:24.143Z,5.13
2017-11-13T10:35:57.997Z,6.07
2017-11-13T10:38:29.918Z,5.33
2017-11-13T10:40:56.847Z,4.67
2017-11-13T10:43:23.739Z,5.07
2017-11-13T10:46:05.671Z,4.90
2017-11-13T10:48:35.214Z,5.13
2017-11-13T10:51:04.144Z,4.80
2017-11-13T10:53:31.024Z,4.57
2017-11-13T10:55:57.965Z,5.70
2017-11-13T10:58:31.774Z,5.27
2017-11-13T11:00:59.351Z,4.60
2017-11-13T11:03:29.951Z,4.40
2017-11-13T11:05:56.947Z,4.77
2017-11-13T11:08:27.784Z,4.60
2017-11-13T11:10:55.895Z,5.20
2017-11-13T11:13:24.727Z,4.30
2017-11-13T11:15:55.378Z,4.73
2017-11-13T11:18:22.301Z,4.10
2017-11-13T11:20:53.168Z,4.63
2017-11-13T11:23:22.075Z,5.07
2017-11-13T11:25:52.311Z,4.63
2017-11-13T11:28:19.971Z,4.00
2017-11-13T11:30:47.820Z,6.00
2017-11-13T11:33:15.096Z,5.23
2017-11-13T11:35:43.986Z,4.33
2017-11-13T11:38:16.943Z,4.20
2017-11-13T11:40:43.908Z,4.67
2017-11-13T11:43:12.583Z,4.77
2017-11-13T11:45:43.359Z,3.80
2017-11-13T11:48:11.091Z,3.47
2017-11-13T11:50:38.402Z,3.33
2017-11-13T11:53:05.304Z,4.10
2017-11-13T12:01:01.146Z,4.80
2017-11-13T12:03:28.471Z,4.30
2017-11-13T12:05:55.363Z,4.00
2017-11-13T12:08:22.740Z,4.70
2017-11-13T12:10:49.852Z,4.63
2017-11-13T12:13:17.165Z,4.43
2017-11-13T12:15:44.051Z,3.90
2017-11-13T12:18:10.963Z,4.63
2017-11-13T12:20:37.882Z,4.60
2017-11-13T12:23:04.763Z,3.90
2017-11-13T12:25:31.686Z,4.53
2017-11-13T12:27:58.670Z,3.87
2017-11-13T12:30:25.668Z,3.77
2017-11-13T12:32:52.583Z,4.07
2017-11-13T12:35:19.527Z,3.90
2017-11-13T12:37:46.916Z,4.73
2017-11-13T12:40:13.873Z,4.27
2017-11-13T12:42:40.782Z,3.67
2017-11-13T12:45:08.079Z,5.57
2017-11-13T12:47:35.240Z,4.00
2017-11-13T12:50:02.215Z,3.73
2017-11-13T12:52:29.122Z,3.73
2017-11-13T12:54:56.133Z,3.20
2017-11-13T12:57:23.443Z,4.37
2017-11-13T12:59:50.339Z,3.90
2017-11-13T13:02:17.227Z,3.40
2017-11-13T13:04:44.215Z,3.53
2017-11-13T13:07:11.507Z,3.67
2017-11-13T13:09:38.392Z,3.07
2017-11-13T13:12:05.306Z,3.93
2017-11-13T13:14:32.199Z,3.53
2017-11-13T13:16:59.515Z,3.17
2017-11-13T13:19:26.440Z,3.83
2017-11-13T13:21:53.343Z,4.20
2017-11-13T13:24:20.300Z,4.10
2017-11-13T13:26:47.690Z,4.37
2017-11-13T13:29:14.570Z,4.30
2017-11-13T13:31:41.495Z,3.07
2017-11-13T13:34:08.530Z,4.00
2017-11-13T13:36:35.412Z,3.60
2017-11-13T13:39:02.290Z,3.47
2017-11-13T13:41:29.631Z,3.90
2017-11-13T13:43:56.531Z,3.67
2017-11-13T13:46:23.528Z,4.03
2017-11-13T13:48:50.442Z,4.33
2017-11-13T13:51:17.333Z,4.60
2017-11-13T13:53:44.614Z,3.77
2017-11-13T13:56:11.519Z,4.37
2017-11-13T13:58:38.456Z,3.90
2017-11-13T14:01:05.407Z,4.80
2017-11-13T14:03:32.398Z,4.03
2017-11-13T14:05:59.343Z,4.50
2017-11-13T14:08:26.276Z,3.90
2017-11-13T14:10:53.179Z,4.00
2017-11-13T14:13:20.067Z,4.00
2017-11-13T14:15:47.047Z,2.80
2017-11-13T14:18:13.941Z,3.17
2017-11-13T14:20:41.284Z,2.80
2017-11-13T14:23:08.235Z,2.90
2017-11-13T14:25:35.543Z,3.40
2017-11-13T14:28:02.427Z,3.57
2017-11-13T14:30:29.389Z,2.50
2017-11-13T14:32:56.671Z,3.37
2017-11-13T14:35:23.551Z,2.73
2017-11-13T14:37:50.466Z,2.73
2017-11-13T14:40:17.367Z,2.90
2017-11-13T14:42:44.252Z,3.50
2017-11-13T14:45:11.254Z,3.57
2017-11-13T14:47:38.165Z,3.27
2017-11-13T14:50:05.159Z,3.40
2017-11-13T14:52:32.475Z,4.23
2017-11-13T14:54:59.371Z,3.73
2017-11-13T14:57:26.710Z,5.43
2017-11-13T14:59:53.656Z,4.00
2017-11-13T15:02:20.955Z,2.97
2017-11-13T15:04:47.838Z,3.70
2017-11-13T15:07:14.798Z,3.87
2017-11-13T15:09:41.793Z,4.20
2017-11-13T15:12:08.697Z,3.70
2017-11-13T15:14:35.639Z,3.60
2017-11-13T15:17:02.587Z,3.87
2017-11-13T15:19:29.532Z,3.40
2017-11-13T15:21:56.479Z,3.77
2017-11-13T15:24:23.430Z,4.67
2017-11-13T15:26:50.712Z,3.10
2017-11-13T15:29:17.626Z,4.70
2017-11-13T15:31:44.635Z,5.67
2017-11-13T15:34:11.588Z,3.63
2017-11-13T15:36:38.608Z,3.87
2017-11-13T15:39:05.510Z,4.17
2017-11-13T15:41:32.434Z,4.30
2017-11-13T15:43:59.403Z,3.90
2017-11-13T15:46:26.354Z,4.30
2017-11-13T15:48:53.670Z,4.87
2017-11-13T15:51:20.554Z,5.03
2017-11-13T15:53:47.442Z,4.17
2017-11-13T15:56:14.400Z,4.80
2017-11-13T15:58:41.283Z,4.13
2017-11-13T16:01:08.166Z,3.60
2017-11-13T16:03:35.086Z,4.17
2017-11-13T16:06:02.376Z,5.17
2017-11-13T16:08:29.279Z,6.07
2017-11-13T16:10:56.227Z,7.60
2017-11-13T16:13:23.115Z,7.03
2017-11-13T16:15:50.015Z,7.50
2017-11-13T16:18:16.967Z,7.30
2017-11-13T16:20:43.905Z,7.30
2017-11-13T16:23:10.865Z,7.97
2017-11-13T16:25:38.219Z,6.70
2017-11-13T16:28:05.616Z,6.47
2017-11-13T16:30:32.515Z,6.63
2017-11-13T16:32:59.454Z,5.80
2017-11-13T16:35:26.408Z,6.90
2017-11-13T16:37:53.694Z,5.40
2017-11-13T16:40:20.707Z,8.00
2017-11-13T16:42:47.664Z,7.00
2017-11-13T16:45:14.550Z,6.00
2017-11-13T16:47:41.495Z,6.17
2017-11-13T16:50:08.395Z,5.40
2017-11-13T16:52:35.383Z,6.20
2017-11-13T16:55:02.413Z,5.80
2017-11-13T16:57:29.702Z,6.20
2017-11-13T16:59:56.687Z,6.47
2017-11-13T17:02:23.678Z,6.03
2017-11-13T17:04:50.588Z,6.20
2017-11-13T17:07:17.942Z,6.97
2017-11-13T17:09:45.223Z,6.90
2017-11-13T17:12:12.112Z,7.20
2017-11-13T17:14:39.052Z,6.67
2017-11-13T17:17:06.036Z,7.17
2017-11-13T17:19:32.921Z,7.47
2017-11-13T17:21:59.872Z,7.97
2017-11-13T17:24:26.757Z,7.83
2017-11-13T17:26:53.710Z,7.00
2017-11-13T17:29:20.671Z,8.60
2017-11-13T17:31:47.956Z,8.47
2017-11-13T17:34:14.860Z,7.40
2017-11-13T17:36:41.810Z,7.07
2017-11-13T17:39:09.160Z,6.80
2017-11-13T17:41:36.072Z,7.87
2017-11-13T17:44:02.990Z,7.20
2017-11-13T17:46:29.880Z,6.77
2017-11-13T17:48:56.784Z,6.20
2017-11-13T17:51:23.735Z,6.70
2017-11-13T17:53:50.622Z,7.13
2017-11-13T17:56:17.519Z,8.60
2017-11-13T17:58:44.531Z,8.00
2017-11-13T18:01:11.479Z,7.90
2017-11-13T18:03:38.755Z,7.60
2017-11-13T18:06:05.678Z,7.37
2017-11-13T18:08:33.076Z,7.20
2017-11-13T18:10:59.962Z,7.30
2017-11-13T18:13:26.879Z,7.03
2017-11-13T18:15:53.917Z,8.00
2017-11-13T18:18:20.814Z,7.93
2017-11-13T18:20:47.764Z,8.07
2017-11-13T18:23:15.118Z,8.00
2017-11-13T18:25:42.474Z,8.03
2017-11-13T18:28:09.424Z,8.37
2017-11-13T18:30:36.718Z,7.23
2017-11-13T18:33:03.624Z,7.13
2017-11-13T18:35:30.974Z,8.00
2017-11-13T18:37:57.923Z,8.40
2017-11-13T18:40:24.820Z,8.13
2017-11-13T18:42:51.742Z,8.13
2017-11-13T18:45:18.658Z,9.30
2017-11-13T18:47:45.611Z,9.00
2017-11-13T18:50:12.940Z,8.57
2017-11-13T18:52:39.836Z,8.90
2017-11-13T18:55:06.763Z,8.47
2017-11-13T18:57:33.690Z,8.80
2017-11-13T19:00:00.588Z,8.43
2017-11-13T19:02:27.490Z,9.00
2017-11-13T19:04:54.404Z,8.30
2017-11-13T19:07:21.378Z,8.60
2017-11-13T19:09:48.298Z,8.53
2017-11-13T19:12:15.222Z,10.20
2017-11-13T19:14:42.147Z,10.30
2017-11-13T19:17:09.063Z,9.30
2017-11-13T19:19:36.016Z,10.20
2017-11-13T19:22:03.370Z,10.60
2017-11-13T19:24:30.282Z,9.93
2017-11-13T19:26:57.261Z,10.27
2017-11-13T19:29:24.222Z,10.47
2017-11-13T19:31:51.511Z,8.50
2017-11-13T19:34:18.394Z,9.40
2017-11-13T19:36:45.364Z,9.57
2017-11-13T19:39:12.717Z,9.30
2017-11-13T19:41:40.032Z,8.47
2017-11-13T19:44:07.012Z,9.60
2017-11-13T19:46:33.959Z,10.10
2017-11-13T19:49:00.906Z,9.70
2017-11-13T19:51:27.816Z,9.67
2017-11-13T19:53:54.706Z,9.53
2017-11-13T19:56:22.038Z,10.43
2017-11-13T19:58:48.927Z,9.07
2017-11-13T20:01:15.840Z,9.33
2017-11-13T20:03:42.790Z,9.27
2017-11-13T20:06:10.084Z,8.27
2017-11-13T20:08:37.002Z,8.63
2017-11-13T20:11:04.301Z,9.70
2017-11-13T20:13:31.285Z,9.00
2017-11-13T20:15:58.209Z,8.37
2017-11-13T20:18:25.186Z,9.73
2017-11-13T20:20:52.132Z,8.13
2017-11-13T20:23:19.087Z,7.97
2017-11-13T20:25:46.370Z,7.20
2017-11-13T20:28:13.275Z,8.73
2017-11-13T20:30:40.223Z,9.43
2017-11-13T20:33:07.130Z,9.83
2017-11-13T20:35:34.119Z,9.00
2017-11-13T20:38:01.013Z,10.60
2017-11-13T20:40:27.911Z,10.20
2017-11-13T20:42:55.247Z,7.67
2017-11-13T20:45:22.219Z,9.47
2017-11-13T20:47:49.506Z,10.83
2017-11-13T20:50:16.510Z,9.73
2017-11-13T20:52:43.402Z,8.90
2017-11-13T20:55:10.331Z,10.30
2017-11-13T20:57:37.275Z,10.07
2017-11-13T21:00:04.199Z,9.10
2017-11-13T21:02:31.142Z,9.20
2017-11-13T21:04:58.088Z,10.10
2017-11-13T21:07:24.998Z,10.20
2017-11-13T21:09:51.945Z,10.53
2017-11-13T21:12:18.926Z,11.40
2017-11-13T21:14:45.846Z,11.47
2017-11-13T21:17:12.768Z,14.07
2017-11-13T21:19:39.772Z,11.73
2017-11-13T21:22:07.054Z,10.70
2017-11-13T21:24:33.963Z,11.60
2017-11-13T21:27:00.916Z,12.93
2017-11-13T21:29:28.241Z,12.23
2017-11-13T21:31:55.215Z,14.13
2017-11-13T21:34:22.499Z,12.60
2017-11-13T21:36:49.416Z,12.50
2017-11-13T21:39:16.309Z,11.77
2017-11-13T21:41:43.311Z,11.90
2017-11-13T21:44:10.271Z,12.53
2017-11-13T21:46:37.590Z,11.43
2017-11-13T21:49:04.570Z,12.40
2017-11-13T21:51:31.847Z,10.93
2017-11-13T21:53:58.773Z,9.93
2017-11-13T21:56:26.059Z,11.37
2017-11-13T21:58:52.960Z,10.37
2017-11-13T22:01:19.914Z,11.20
2017-11-13T22:03:47.263Z,10.27
2017-11-13T22:06:14.143Z,11.30
2017-11-13T22:08:41.158Z,12.00
2017-11-13T22:11:08.447Z,12.10
2017-11-13T22:13:35.335Z,11.73
2017-11-13T22:16:02.307Z,11.20
2017-11-13T22:18:29.655Z,11.70
2017-11-13T22:20:56.539Z,11.30
2017-11-13T22:23:23.527Z,11.90
2017-11-13T22:25:50.415Z,11.83
2017-11-13T22:28:17.333Z,11.33
2017-11-13T22:30:44.284Z,10.80
2017-11-13T22:33:11.234Z,11.60
2017-11-13T22:35:38.582Z,11.50
2017-11-13T22:38:05.530Z,11.83
2017-11-13T22:40:32.479Z,11.20
2017-11-13T22:42:59.430Z,11.90
2017-11-13T22:45:26.741Z,12.70
2017-11-13T22:47:53.727Z,12.33
2017-11-13T22:50:20.679Z,13.10
2017-11-13T22:52:47.964Z,12.97
2017-11-13T22:55:14.847Z,10.30
2017-11-13T22:57:41.766Z,10.67
2017-11-13T23:00:08.667Z,13.50
2017-11-13T23:02:35.585Z,12.00
2017-11-13T23:05:02.482Z,11.23
2017-11-13T23:07:29.463Z,12.10
2017-11-13T23:09:56.391Z,10.97
2017-11-13T23:12:23.283Z,12.00
2017-11-13T23:14:50.172Z,14.30
2017-11-13T23:17:17.090Z,13.50
2017-11-13T23:19:44.406Z,14.77
2017-11-13T23:22:11.302Z,15.40
2017-11-13T23:24:38.229Z,13.83
2017-11-13T23:27:05.175Z,12.73
2017-11-13T23:29:32.059Z,14.43
2017-11-13T23:31:59.071Z,13.80
2017-11-13T23:34:26.354Z,13.07
2017-11-13T23:36:53.254Z,13.33
2017-11-13T23:39:20.187Z,12.97
2017-11-13T23:41:47.166Z,12.70
2017-11-13T23:44:14.111Z,14.67
2017-11-13T23:46:41.035Z,12.70
2017-11-13T23:49:07.919Z,13.67
2017-11-13T23:51:35.219Z,14.30
2017-11-13T23:54:02.207Z,14.23
2017-11-13T23:56:29.507Z,14.47
2017-11-13T23:58:56.403Z,14.50
